createdAt,value
2023-04-09T00:01:39.739Z,0.80
2023-04-09T00:04:07.301Z,0.70
2023-04-09T00:06:34.710Z,0.80
2023-04-09T00:09:02.250Z,0.80
2023-04-09T00:11:29.686Z,0.80
2023-04-09T00:13:58.185Z,0.90
2023-04-09T00:16:25.833Z,0.90
2023-04-09T00:18:54.609Z,1.00
2023-04-09T00:21:22.426Z,1.00
2023-04-09T00:23:49.914Z,0.80
2023-04-09T00:26:17.338Z,0.90
2023-04-09T00:28:45.351Z,0.90
2023-04-09T00:31:13.317Z,0.80
2023-04-09T00:33:41.217Z,0.90
2023-04-09T00:36:08.887Z,0.90
2023-04-09T00:38:36.498Z,1.00
2023-04-09T00:41:03.998Z,1.00
2023-04-09T00:43:31.550Z,1.00
2023-04-09T00:46:00.818Z,1.00
2023-04-09T00:48:28.620Z,1.00
2023-04-09T00:50:56.975Z,1.00
2023-04-09T00:53:25.336Z,1.00
2023-04-09T00:55:54.524Z,1.00
2023-04-09T00:58:22.113Z,1.10
2023-04-09T01:00:49.695Z,1.10
2023-04-09T01:03:17.467Z,1.10
2023-04-09T01:06:06.131Z,1.10
2023-04-09T01:08:51.262Z,1.00
2023-04-09T01:11:37.888Z,1.10
2023-04-09T01:14:31.649Z,1.20
2023-04-09T01:17:09.938Z,1.30
2023-04-09T01:19:54.624Z,1.30
2023-04-09T01:22:45.399Z,1.30
2023-04-09T01:25:51.191Z,1.30
2023-04-09T01:28:31.414Z,1.40
2023-04-09T01:31:07.671Z,1.50
2023-04-09T01:33:35.925Z,1.40
2023-04-09T01:36:06.497Z,1.50
2023-04-09T01:38:36.392Z,1.50
2023-04-09T01:41:05.224Z,1.60
2023-04-09T01:43:34.466Z,1.60
2023-04-09T01:46:03.634Z,1.50
2023-04-09T01:48:32.815Z,1.30
2023-04-09T01:51:00.752Z,1.30
2023-04-09T01:53:28.469Z,1.30
2023-04-09T01:55:56.810Z,1.40
2023-04-09T01:58:26.113Z,1.40
2023-04-09T02:01:05.444Z,1.30
2023-04-09T02:03:51.407Z,1.30
2023-04-09T02:06:31.146Z,1.40
2023-04-09T02:09:01.500Z,1.40
2023-04-09T02:11:30.263Z,1.40
2023-04-09T02:13:58.492Z,1.50
2023-04-09T02:16:27.427Z,1.40
2023-04-09T02:18:56.926Z,1.40
2023-04-09T02:21:24.577Z,1.40
2023-04-09T02:23:52.445Z,1.40
2023-04-09T02:26:19.950Z,1.40
2023-04-09T02:28:47.426Z,1.40
2023-04-09T02:31:15.274Z,1.30
2023-04-09T02:33:43.639Z,1.20
2023-04-09T02:36:12.991Z,1.20
2023-04-09T02:38:42.434Z,1.20
2023-04-09T02:41:09.989Z,1.20
2023-04-09T02:43:37.642Z,1.10
2023-04-09T02:46:05.625Z,1.20
2023-04-09T02:48:35.000Z,1.30
2023-04-09T02:51:06.173Z,1.40
2023-04-09T02:53:33.736Z,1.30
2023-04-09T02:56:01.496Z,1.30
2023-04-09T02:58:29.026Z,1.40
2023-04-09T03:00:56.669Z,1.40
2023-04-09T03:03:24.339Z,1.50
2023-04-09T03:05:51.970Z,1.50
2023-04-09T03:08:19.460Z,1.40
2023-04-09T03:10:46.917Z,1.40
2023-04-09T03:13:14.468Z,1.30
2023-04-09T03:15:42.178Z,1.30
2023-04-09T03:18:09.711Z,1.30
2023-04-09T03:20:40.223Z,1.20
2023-04-09T03:23:11.355Z,1.20
2023-04-09T03:25:43.005Z,1.20
2023-04-09T03:28:14.394Z,1.30
2023-04-09T03:30:48.063Z,1.30
2023-04-09T03:33:16.143Z,1.30
2023-04-09T03:35:53.116Z,1.30
2023-04-09T03:38:30.380Z,1.20
2023-04-09T03:40:59.921Z,1.20
2023-04-09T03:43:27.534Z,1.20
2023-04-09T03:45:55.081Z,1.20
2023-04-09T03:48:25.893Z,1.30
2023-04-09T03:50:53.969Z,1.30
2023-04-09T03:53:30.397Z,1.40
2023-04-09T03:56:03.266Z,1.50
2023-04-09T03:58:32.095Z,1.50
2023-04-09T04:01:00.319Z,1.60
2023-04-09T04:03:37.029Z,1.60
2023-04-09T04:06:24.975Z,1.60
2023-04-09T04:09:11.294Z,1.60
2023-04-09T04:11:47.262Z,1.60
2023-04-09T04:14:15.868Z,1.50
2023-04-09T04:16:46.956Z,1.60
2023-04-09T04:19:18.798Z,1.50
2023-04-09T04:21:49.214Z,1.50
2023-04-09T04:24:18.203Z,1.50
2023-04-09T04:26:46.114Z,1.40
2023-04-09T04:29:17.981Z,1.50
2023-04-09T04:31:54.172Z,1.50
2023-04-09T04:34:24.280Z,1.40
2023-04-09T04:36:59.579Z,1.50
2023-04-09T04:39:31.336Z,1.50
2023-04-09T04:42:03.454Z,1.50
2023-04-09T04:44:31.182Z,1.50
2023-04-09T04:47:10.847Z,1.50
2023-04-09T04:49:38.396Z,1.50
2023-04-09T04:52:07.852Z,1.40
2023-04-09T04:54:36.590Z,1.40
2023-04-09T04:57:04.228Z,1.40
2023-04-09T04:59:41.987Z,1.40
2023-04-09T05:02:11.975Z,1.40
2023-04-09T05:04:59.804Z,1.40
2023-04-09T05:07:34.780Z,1.20
2023-04-09T05:10:02.620Z,1.20
2023-04-09T05:12:36.452Z,1.10
2023-04-09T05:15:05.802Z,1.00
2023-04-09T05:17:33.393Z,0.90
2023-04-09T05:20:01.362Z,0.90
2023-04-09T05:22:40.495Z,0.90
2023-04-09T05:25:08.740Z,0.90
2023-04-09T05:27:40.190Z,0.90
2023-04-09T05:30:08.674Z,0.90
2023-04-09T05:32:36.559Z,0.80
2023-04-09T05:35:05.593Z,0.80
2023-04-09T05:37:39.202Z,0.80
2023-04-09T05:40:07.939Z,0.90
2023-04-09T05:42:36.049Z,0.90
2023-04-09T05:45:09.133Z,0.80
2023-04-09T05:47:38.435Z,0.70
2023-04-09T05:50:14.451Z,0.60
2023-04-09T05:52:42.216Z,0.70
2023-04-09T05:55:12.618Z,0.60
2023-04-09T05:57:47.457Z,0.70
2023-04-09T06:00:15.721Z,0.70
2023-04-09T06:02:48.136Z,0.70
2023-04-09T06:05:16.067Z,0.70
2023-04-09T06:07:43.651Z,0.60
2023-04-09T06:10:11.302Z,0.60
2023-04-09T06:12:39.834Z,0.70
2023-04-09T06:15:07.697Z,0.90
2023-04-09T06:17:35.611Z,0.90
2023-04-09T06:20:03.784Z,0.90
2023-04-09T06:22:31.278Z,1.00
2023-04-09T06:24:58.785Z,1.10
2023-04-09T06:27:26.607Z,1.10
2023-04-09T06:29:54.118Z,1.10
2023-04-09T06:32:21.792Z,1.20
2023-04-09T06:34:49.350Z,1.30
2023-04-09T06:37:16.861Z,1.40
2023-04-09T06:39:50.637Z,1.60
2023-04-09T06:42:26.803Z,1.70
2023-04-09T06:45:08.569Z,1.80
2023-04-09T06:47:36.416Z,1.80
2023-04-09T06:50:04.409Z,1.90
2023-04-09T06:52:32.031Z,1.80
2023-04-09T06:54:59.485Z,1.80
2023-04-09T06:57:27.271Z,2.10
2023-04-09T06:59:54.734Z,2.30
2023-04-09T07:02:22.512Z,2.50
2023-04-09T07:04:50.675Z,2.80
2023-04-09T07:07:18.618Z,3.20
2023-04-09T07:09:46.338Z,3.30
2023-04-09T07:12:13.928Z,3.50
2023-04-09T07:14:41.567Z,3.60
2023-04-09T07:17:09.042Z,3.70
2023-04-09T07:19:36.479Z,4.60
2023-04-09T07:22:03.900Z,5.30
2023-04-09T07:24:31.407Z,5.40
2023-04-09T07:27:03.420Z,5.70
2023-04-09T07:29:31.087Z,5.30
2023-04-09T07:32:01.092Z,5.90
2023-04-09T07:34:28.969Z,6.00
2023-04-09T07:36:56.527Z,5.80
2023-04-09T07:39:24.060Z,7.00
2023-04-09T07:41:51.503Z,8.00
2023-04-09T07:44:19.018Z,7.60
2023-04-09T07:46:46.543Z,7.60
2023-04-09T07:49:14.444Z,9.00
2023-04-09T07:51:42.013Z,11.30
2023-04-09T07:54:09.505Z,11.90
2023-04-09T07:56:37.049Z,12.70
2023-04-09T07:59:04.779Z,12.80
2023-04-09T08:01:32.306Z,12.50
2023-04-09T08:04:00.054Z,13.10
2023-04-09T08:06:27.663Z,12.20
2023-04-09T08:08:55.313Z,10.90
2023-04-09T08:11:25.306Z,10.80
2023-04-09T08:13:53.077Z,10.70
2023-04-09T08:16:24.440Z,10.50
2023-04-09T08:18:52.168Z,10.30
2023-04-09T08:21:20.042Z,10.00
2023-04-09T08:23:47.638Z,10.10
2023-04-09T08:26:15.293Z,10.20
2023-04-09T08:28:42.893Z,9.90
2023-04-09T08:31:10.386Z,10.50
2023-04-09T08:33:37.968Z,10.80
2023-04-09T08:36:11.344Z,12.30
2023-04-09T08:38:38.935Z,13.90
2023-04-09T08:41:06.560Z,14.80
2023-04-09T08:43:53.117Z,15.30
2023-04-09T08:46:23.768Z,14.30
2023-04-09T08:48:52.565Z,13.10
2023-04-09T08:51:22.569Z,11.40
2023-04-09T08:53:57.000Z,10.20
2023-04-09T08:56:26.187Z,9.40
2023-04-09T08:58:55.298Z,9.20
2023-04-09T09:01:24.124Z,8.90
2023-04-09T09:04:01.528Z,8.70
2023-04-09T09:06:32.902Z,8.40
2023-04-09T09:09:17.393Z,8.20
2023-04-09T09:11:51.021Z,8.20
2023-04-09T09:14:19.638Z,8.00
2023-04-09T09:16:56.643Z,7.70
2023-04-09T09:19:26.964Z,7.70
2023-04-09T09:21:58.076Z,7.80
2023-04-09T09:24:25.817Z,8.20
2023-04-09T09:26:58.789Z,8.60
2023-04-09T09:29:28.186Z,9.00
2023-04-09T09:31:56.354Z,8.80
2023-04-09T09:34:24.992Z,8.40
2023-04-09T09:36:53.391Z,8.10
2023-04-09T09:39:22.245Z,7.80
2023-04-09T09:42:07.633Z,7.60
2023-04-09T09:44:35.241Z,7.70
2023-04-09T09:47:04.785Z,7.90
2023-04-09T09:49:32.244Z,8.00
2023-04-09T09:52:02.818Z,8.30
2023-04-09T09:54:38.961Z,8.20
2023-04-09T09:57:09.696Z,8.40
2023-04-09T10:00:00.885Z,8.80
2023-04-09T10:02:32.688Z,9.00
2023-04-09T10:05:01.621Z,9.20
2023-04-09T10:07:30.051Z,9.10
2023-04-09T10:09:58.754Z,9.20
2023-04-09T10:12:27.682Z,9.40
2023-04-09T10:14:56.647Z,9.30
2023-04-09T10:17:24.172Z,8.90
2023-04-09T10:20:07.639Z,8.80
2023-04-09T10:22:36.384Z,8.50
2023-04-09T10:25:06.437Z,8.20
2023-04-09T10:27:34.132Z,8.00
2023-04-09T10:30:01.761Z,7.90
2023-04-09T10:32:36.169Z,7.80
2023-04-09T10:35:04.621Z,7.70
2023-04-09T10:37:32.256Z,7.60
2023-04-09T10:39:59.784Z,7.50
2023-04-09T10:42:32.798Z,7.40
2023-04-09T10:45:14.889Z,7.50
2023-04-09T10:47:43.980Z,7.60
2023-04-09T10:50:16.139Z,7.50
2023-04-09T10:52:44.399Z,7.50
2023-04-09T10:55:41.811Z,7.40
2023-04-09T10:58:13.190Z,7.20
2023-04-09T11:00:43.513Z,7.20
2023-04-09T11:03:30.434Z,7.20
2023-04-09T11:06:10.436Z,7.10
2023-04-09T11:08:38.744Z,7.20
2023-04-09T11:11:06.414Z,7.30
2023-04-09T11:13:34.513Z,7.40
2023-04-09T11:16:06.775Z,7.50
2023-04-09T11:18:35.533Z,7.40
2023-04-09T11:21:04.476Z,7.40
2023-04-09T11:23:33.038Z,7.40
2023-04-09T11:26:01.835Z,7.50
2023-04-09T11:28:29.417Z,7.60
2023-04-09T11:30:56.962Z,7.70
2023-04-09T11:33:33.226Z,7.70
2023-04-09T11:36:01.828Z,7.70
2023-04-09T11:38:31.521Z,7.80
2023-04-09T11:40:59.130Z,8.00
2023-04-09T11:43:26.574Z,7.90
2023-04-09T11:45:55.834Z,8.00
2023-04-09T11:48:24.925Z,8.10
2023-04-09T11:50:52.746Z,8.10
2023-04-09T11:53:21.404Z,8.20
2023-04-09T11:55:53.605Z,8.40
2023-04-09T11:58:27.937Z,8.50
2023-04-09T12:00:57.946Z,8.50
2023-04-09T12:03:33.254Z,8.50
2023-04-09T12:06:03.104Z,8.40
2023-04-09T12:08:31.501Z,8.40
2023-04-09T12:11:09.486Z,8.20
2023-04-09T12:13:37.060Z,8.50
2023-04-09T12:16:05.741Z,8.60
2023-04-09T12:18:37.903Z,8.90
2023-04-09T12:21:06.019Z,8.90
2023-04-09T12:23:33.557Z,8.80
2023-04-09T12:26:01.984Z,8.60
2023-04-09T12:28:29.836Z,8.50
2023-04-09T12:30:59.375Z,8.40
2023-04-09T12:33:27.286Z,8.40
2023-04-09T12:35:56.037Z,8.10
2023-04-09T12:38:23.574Z,8.00
2023-04-09T12:40:51.207Z,8.00
2023-04-09T12:43:18.803Z,8.00
2023-04-09T12:45:46.846Z,7.90
2023-04-09T12:48:14.314Z,7.90
2023-04-09T12:50:41.839Z,7.80
2023-04-09T12:53:09.366Z,7.70
2023-04-09T12:55:36.840Z,7.80
2023-04-09T12:58:04.958Z,7.90
2023-04-09T13:00:33.426Z,8.00
2023-04-09T13:03:04.365Z,8.20
2023-04-09T13:05:35.379Z,8.20
2023-04-09T13:08:03.477Z,8.40
2023-04-09T13:10:31.777Z,8.50
2023-04-09T13:12:59.409Z,8.60
2023-04-09T13:15:27.385Z,8.70
2023-04-09T13:17:55.962Z,8.80
2023-04-09T13:20:23.579Z,8.80
2023-04-09T13:22:52.364Z,8.70
2023-04-09T13:25:20.453Z,8.80
2023-04-09T13:27:48.085Z,9.00
2023-04-09T13:30:16.001Z,9.20
2023-04-09T13:32:43.773Z,9.10
2023-04-09T13:35:11.447Z,9.10
2023-04-09T13:37:39.051Z,9.10
2023-04-09T13:40:09.053Z,8.90
2023-04-09T13:42:37.560Z,8.90
2023-04-09T13:45:06.023Z,8.90
2023-04-09T13:47:33.742Z,8.90
2023-04-09T13:50:01.458Z,8.90
2023-04-09T13:52:29.762Z,9.20
2023-04-09T13:54:57.470Z,9.40
2023-04-09T13:57:25.067Z,9.30
2023-04-09T13:59:52.642Z,9.20
2023-04-09T14:02:20.690Z,9.10
2023-04-09T14:04:48.663Z,9.10
2023-04-09T14:07:16.563Z,8.80
2023-04-09T14:09:44.239Z,8.80
2023-04-09T14:12:11.698Z,9.10
2023-04-09T14:14:39.289Z,9.40
2023-04-09T14:17:06.884Z,9.50
2023-04-09T14:19:34.379Z,9.10
2023-04-09T14:22:01.989Z,9.20
2023-04-09T14:24:29.589Z,9.50
2023-04-09T14:26:57.112Z,9.70
2023-04-09T14:29:24.737Z,9.90
2023-04-09T14:31:53.504Z,9.80
2023-04-09T14:34:21.908Z,9.70
2023-04-09T14:36:49.698Z,9.70
2023-04-09T14:39:17.836Z,9.70
2023-04-09T14:41:45.298Z,9.40
2023-04-09T14:44:12.848Z,9.50
2023-04-09T14:46:40.457Z,9.90
2023-04-09T14:49:08.047Z,9.90
2023-04-09T14:51:35.558Z,10.20
2023-04-09T14:54:03.348Z,10.10
2023-04-09T14:56:30.975Z,9.90
2023-04-09T14:58:58.664Z,10.10
2023-04-09T15:01:27.480Z,10.30
2023-04-09T15:03:55.666Z,10.30
2023-04-09T15:06:23.338Z,10.50
2023-04-09T15:08:51.157Z,10.90
2023-04-09T15:11:20.028Z,11.00
2023-04-09T15:13:47.601Z,10.80
2023-04-09T15:16:26.007Z,10.70
2023-04-09T15:18:56.201Z,10.80
2023-04-09T15:21:24.000Z,10.70
2023-04-09T15:23:51.950Z,10.60
2023-04-09T15:26:19.573Z,10.60
2023-04-09T15:28:47.135Z,10.40
2023-04-09T15:31:14.607Z,10.20
2023-04-09T15:33:43.865Z,9.90
2023-04-09T15:36:11.978Z,9.90
2023-04-09T15:38:39.680Z,10.00
2023-04-09T15:41:07.115Z,9.90
2023-04-09T15:43:34.570Z,9.70
2023-04-09T15:46:09.190Z,9.60
2023-04-09T15:48:37.129Z,9.30
2023-04-09T15:51:04.945Z,9.40
2023-04-09T15:53:32.414Z,9.30
2023-04-09T15:55:59.874Z,9.10
2023-04-09T15:58:27.317Z,8.90
2023-04-09T16:00:54.838Z,8.90
2023-04-09T16:03:22.302Z,8.90
2023-04-09T16:05:49.991Z,9.10
2023-04-09T16:08:17.515Z,9.20
2023-04-09T16:10:45.356Z,9.20
2023-04-09T16:13:12.966Z,9.50
2023-04-09T16:15:40.516Z,9.90
2023-04-09T16:18:08.327Z,10.20
2023-04-09T16:20:36.017Z,10.40
2023-04-09T16:23:03.458Z,10.40
2023-04-09T16:25:31.977Z,10.40
2023-04-09T16:27:59.487Z,10.30
2023-04-09T16:30:27.054Z,10.20
2023-04-09T16:32:54.789Z,10.30
2023-04-09T16:35:22.467Z,10.20
2023-04-09T16:37:51.822Z,10.00
2023-04-09T16:40:24.204Z,10.10
2023-04-09T16:42:51.746Z,9.90
2023-04-09T16:45:19.492Z,9.80
2023-04-09T16:47:50.100Z,9.90
2023-04-09T16:50:20.547Z,9.70
2023-04-09T16:52:48.528Z,9.80
2023-04-09T16:55:16.647Z,9.90
2023-04-09T16:57:44.244Z,9.80
2023-04-09T17:00:12.901Z,9.80
2023-04-09T17:02:40.582Z,9.70
2023-04-09T17:05:09.188Z,9.50
2023-04-09T17:07:37.081Z,9.50
2023-04-09T17:10:05.420Z,9.30
2023-04-09T17:12:33.386Z,9.00
2023-04-09T17:15:01.390Z,8.80
2023-04-09T17:17:29.004Z,8.60
2023-04-09T17:19:58.436Z,8.50
2023-04-09T17:22:26.017Z,8.40
2023-04-09T17:24:53.812Z,8.40
2023-04-09T17:27:21.790Z,8.50
2023-04-09T17:29:49.379Z,8.50
2023-04-09T17:32:16.922Z,8.60
2023-04-09T17:34:48.342Z,8.50
2023-04-09T17:37:15.804Z,8.50
2023-04-09T17:39:43.163Z,8.30
2023-04-09T17:42:12.118Z,8.20
2023-04-09T17:44:39.692Z,7.90
2023-04-09T17:47:07.532Z,7.70
2023-04-09T17:49:35.073Z,7.50
2023-04-09T17:52:02.594Z,7.40
2023-04-09T17:54:36.905Z,7.30
2023-04-09T17:57:04.774Z,7.20
2023-04-09T17:59:33.136Z,7.00
2023-04-09T18:02:01.331Z,6.60
2023-04-09T18:04:29.089Z,6.20
2023-04-09T18:06:57.025Z,5.80
2023-04-09T18:09:24.488Z,5.60
2023-04-09T18:11:56.503Z,5.40
2023-04-09T18:14:24.129Z,5.30
2023-04-09T18:16:51.828Z,5.20
2023-04-09T18:19:19.435Z,5.10
2023-04-09T18:21:47.374Z,5.00
2023-04-09T18:24:15.100Z,4.90
2023-04-09T18:26:42.545Z,4.80
2023-04-09T18:29:10.026Z,4.70
2023-04-09T18:31:37.515Z,4.60
2023-04-09T18:34:05.171Z,4.40
2023-04-09T18:36:32.656Z,4.20
2023-04-09T18:39:00.115Z,4.10
2023-04-09T18:41:27.592Z,4.00
2023-04-09T18:43:55.633Z,4.00
2023-04-09T18:46:23.994Z,4.00
2023-04-09T18:48:51.747Z,4.00
2023-04-09T18:51:21.025Z,3.90
2023-04-09T18:53:52.829Z,3.80
2023-04-09T18:56:21.125Z,3.80
2023-04-09T18:58:48.861Z,3.80
2023-04-09T19:01:17.484Z,3.50
2023-04-09T19:03:45.786Z,3.40
2023-04-09T19:06:18.830Z,3.40
2023-04-09T19:08:47.089Z,3.50
2023-04-09T19:11:14.958Z,3.60
2023-04-09T19:13:42.484Z,3.50
2023-04-09T19:16:10.018Z,3.60
2023-04-09T19:18:37.783Z,3.60
2023-04-09T19:21:08.668Z,3.60
2023-04-09T19:23:36.278Z,3.40
2023-04-09T19:26:05.459Z,3.30
2023-04-09T19:28:32.967Z,3.10
2023-04-09T19:31:02.820Z,3.00
2023-04-09T19:33:31.740Z,3.00
2023-04-09T19:35:59.322Z,3.00
2023-04-09T19:38:27.037Z,3.00
2023-04-09T19:40:54.591Z,3.00
2023-04-09T19:43:22.170Z,3.00
2023-04-09T19:45:49.814Z,2.90
2023-04-09T19:48:17.282Z,2.80
2023-04-09T19:50:45.271Z,2.70
2023-04-09T19:53:12.797Z,2.70
2023-04-09T19:55:40.351Z,2.80
2023-04-09T19:58:07.869Z,2.80
2023-04-09T20:00:35.429Z,2.90
2023-04-09T20:03:03.425Z,3.00
2023-04-09T20:05:31.042Z,2.80
2023-04-09T20:07:58.581Z,2.60
2023-04-09T20:10:26.108Z,2.40
2023-04-09T20:12:53.877Z,2.40
2023-04-09T20:15:21.374Z,2.50
2023-04-09T20:17:49.729Z,2.50
2023-04-09T20:20:19.789Z,2.60
2023-04-09T20:22:55.712Z,2.60
2023-04-09T20:25:24.954Z,2.50
2023-04-09T20:27:54.073Z,2.50
2023-04-09T20:30:22.512Z,2.40
2023-04-09T20:32:50.058Z,2.40
2023-04-09T20:35:17.605Z,2.40
2023-04-09T20:37:45.262Z,2.50
2023-04-09T20:40:12.918Z,2.60
2023-04-09T20:42:44.010Z,2.60
2023-04-09T20:45:11.867Z,2.70
2023-04-09T20:47:39.613Z,2.70
2023-04-09T20:50:07.731Z,2.70
2023-04-09T20:52:35.392Z,2.80
2023-04-09T20:55:03.127Z,2.80
2023-04-09T20:57:30.608Z,2.80
2023-04-09T20:59:58.169Z,2.90
2023-04-09T21:02:25.971Z,2.90
2023-04-09T21:04:53.641Z,2.60
2023-04-09T21:07:21.379Z,2.30
2023-04-09T21:09:49.326Z,2.10
2023-04-09T21:12:16.931Z,2.00
2023-04-09T21:14:44.774Z,2.10
2023-04-09T21:17:12.388Z,2.30
2023-04-09T21:19:40.308Z,2.50
2023-04-09T21:22:07.843Z,2.60
2023-04-09T21:24:35.529Z,2.60
2023-04-09T21:27:06.793Z,2.60
2023-04-09T21:29:37.247Z,2.60
2023-04-09T21:32:04.980Z,2.50
2023-04-09T21:34:32.801Z,2.30
2023-04-09T21:37:02.782Z,2.30
2023-04-09T21:39:30.401Z,2.30
2023-04-09T21:41:58.141Z,2.20
2023-04-09T21:44:25.731Z,2.00
2023-04-09T21:46:53.342Z,1.80
2023-04-09T21:49:20.868Z,1.50
2023-04-09T21:51:48.319Z,1.40
2023-04-09T21:54:15.881Z,1.40
2023-04-09T21:56:43.460Z,1.40
2023-04-09T21:59:11.052Z,1.40
2023-04-09T22:01:38.683Z,1.50
2023-04-09T22:04:06.409Z,1.50
2023-04-09T22:06:34.065Z,1.50
2023-04-09T22:09:02.168Z,1.50
2023-04-09T22:11:29.947Z,1.60
2023-04-09T22:13:57.733Z,1.70
2023-04-09T22:16:26.132Z,1.70
2023-04-09T22:18:54.836Z,1.80
2023-04-09T22:21:22.782Z,1.80
2023-04-09T22:23:50.355Z,1.70
2023-04-09T22:26:18.029Z,1.60
2023-04-09T22:28:45.508Z,1.40
2023-04-09T22:31:13.092Z,1.30
2023-04-09T22:33:40.939Z,1.20
2023-04-09T22:36:08.587Z,1.30
2023-04-09T22:38:36.250Z,1.30
2023-04-09T22:41:03.875Z,1.40
2023-04-09T22:43:31.667Z,1.40
2023-04-09T22:45:59.314Z,1.50
2023-04-09T22:48:27.185Z,1.50
2023-04-09T22:50:54.974Z,1.50
2023-04-09T22:53:22.423Z,1.40
2023-04-09T22:55:51.634Z,1.20
2023-04-09T22:58:19.354Z,1.00
2023-04-09T23:00:47.680Z,1.10
2023-04-09T23:03:15.906Z,1.10
2023-04-09T23:05:43.876Z,1.30
2023-04-09T23:08:12.055Z,1.30
2023-04-09T23:10:39.585Z,1.30
2023-04-09T23:13:07.174Z,1.30
2023-04-09T23:15:34.770Z,1.30
2023-04-09T23:18:02.336Z,1.20
2023-04-09T23:20:29.857Z,1.00
2023-04-09T23:22:57.414Z,0.80
2023-04-09T23:25:24.942Z,0.70
2023-04-09T23:27:52.497Z,0.70
2023-04-09T23:30:21.616Z,0.70
2023-04-09T23:32:49.215Z,0.60
2023-04-09T23:35:16.874Z,0.60
2023-04-09T23:37:44.447Z,0.60
2023-04-09T23:40:12.337Z,0.70
2023-04-09T23:42:39.813Z,0.80
2023-04-09T23:45:07.877Z,0.80
2023-04-09T23:47:36.429Z,0.80
2023-04-09T23:50:05.798Z,0.70
2023-04-09T23:52:37.951Z,0.60
2023-04-09T23:55:10.738Z,0.50
2023-04-09T23:57:39.547Z,0.50
